METEOROLOGIA BHB

16 - 20:00 - METAR SAZB 162000Z 34015KT CAVOK 36/08 Q1011 =

IMAGEN SATELITAL

WINDY